sensor_id;sensor_type;location;lat;lon;timestamp;pressure;altitude;pressure_sealevel;temperature;humidity
42511;BME280;28141;51.120;17.114;2023-02-28T00:01:35;103064.94;;;23.21;24.78
42511;BME280;28141;51.120;17.114;2023-02-28T00:05:18;103055.23;;;23.25;24.87
42511;BME280;28141;51.120;17.114;2023-02-28T00:08:33;103055.95;;;23.27;25.01
42511;BME280;28141;51.120;17.114;2023-02-28T00:11:47;103056.97;;;23.26;24.61
42511;BME280;28141;51.120;17.114;2023-02-28T00:15:02;103056.82;;;23.20;24.57
42511;BME280;28141;51.120;17.114;2023-02-28T00:18:43;103062.02;;;23.23;24.85
42511;BME280;28141;51.120;17.114;2023-02-28T00:21:57;103051.82;;;23.23;24.78
42511;BME280;28141;51.120;17.114;2023-02-28T00:25:13;103052.15;;;23.20;24.74
42511;BME280;28141;51.120;17.114;2023-02-28T00:28:28;103057.52;;;23.22;25.08
42511;BME280;28141;51.120;17.114;2023-02-28T00:32:09;103061.30;;;23.29;24.87
42511;BME280;28141;51.120;17.114;2023-02-28T00:35:23;103059.57;;;23.28;24.89
42511;BME280;28141;51.120;17.114;2023-02-28T00:38:38;103056.12;;;23.26;24.79
42511;BME280;28141;51.120;17.114;2023-02-28T00:41:52;103046.27;;;23.32;24.70
42511;BME280;28141;51.120;17.114;2023-02-28T00:45:32;103046.44;;;23.30;24.86
42511;BME280;28141;51.120;17.114;2023-02-28T00:48:46;103043.16;;;23.35;24.87
42511;BME280;28141;51.120;17.114;2023-02-28T00:52:00;103043.15;;;23.26;24.92
42511;BME280;28141;51.120;17.114;2023-02-28T00:55:15;103045.57;;;23.29;24.51
42511;BME280;28141;51.120;17.114;2023-02-28T00:58:55;103043.15;;;23.26;24.86
42511;BME280;28141;51.120;17.114;2023-02-28T01:02:09;103054.56;;;23.32;24.71
42511;BME280;28141;51.120;17.114;2023-02-28T01:05:23;103046.61;;;23.28;24.87
42511;BME280;28141;51.120;17.114;2023-02-28T01:08:37;103041.05;;;23.37;25.32
42511;BME280;28141;51.120;17.114;2023-02-28T01:12:16;103053.36;;;23.34;24.83
42511;BME280;28141;51.120;17.114;2023-02-28T01:15:30;103041.95;;;23.29;24.61
42511;BME280;28141;51.120;17.114;2023-02-28T01:18:45;103041.43;;;23.34;24.75
42511;BME280;28141;51.120;17.114;2023-02-28T01:22:04;103039.70;;;23.33;24.67
42511;BME280;28141;51.120;17.114;2023-02-28T01:25:45;103034.31;;;23.39;24.82
42511;BME280;28141;51.120;17.114;2023-02-28T01:28:59;103034.16;;;23.33;24.52
42511;BME280;28141;51.120;17.114;2023-02-28T01:32:13;103035.88;;;23.25;24.52
42511;BME280;28141;51.120;17.114;2023-02-28T01:35:27;103043.51;;;23.32;24.75
42511;BME280;28141;51.120;17.114;2023-02-28T01:39:09;103050.41;;;23.27;24.88
42511;BME280;28141;51.120;17.114;2023-02-28T01:42:23;103037.45;;;23.28;24.98
42511;BME280;28141;51.120;17.114;2023-02-28T01:45:37;103026.91;;;23.32;24.56
42511;BME280;28141;51.120;17.114;2023-02-28T01:48:56;103038.66;;;23.34;24.87
42511;BME280;28141;51.120;17.114;2023-02-28T01:52:43;103039.17;;;23.29;24.87
42511;BME280;28141;51.120;17.114;2023-02-28T01:55:58;103035.88;;;23.25;24.60
42511;BME280;28141;51.120;17.114;2023-02-28T01:59:16;103039.02;;;23.22;24.94
42511;BME280;28141;51.120;17.114;2023-02-28T02:02:33;103030.90;;;23.21;24.80
42511;BME280;28141;51.120;17.114;2023-02-28T02:05:47;103029.67;;;23.32;25.28
42511;BME280;28141;51.120;17.114;2023-02-28T02:09:34;103040.73;;;23.32;24.84
42511;BME280;28141;51.120;17.114;2023-02-28T02:27:20;103026.24;;;23.13;25.05
42511;BME280;28141;51.120;17.114;2023-02-28T02:38:08;103032.45;;;23.15;24.95
42511;BME280;28141;51.120;17.114;2023-02-28T02:41:52;103033.30;;;23.16;25.05
42511;BME280;28141;51.120;17.114;2023-02-28T02:45:11;103028.45;;;23.26;25.06
42511;BME280;28141;51.120;17.114;2023-02-28T02:48:30;103027.26;;;23.20;25.08
42511;BME280;28141;51.120;17.114;2023-02-28T02:51:47;103029.32;;;23.26;24.96
42511;BME280;28141;51.120;17.114;2023-02-28T02:55:02;103021.72;;;23.28;24.88
42511;BME280;28141;51.120;17.114;2023-02-28T02:58:49;103029.69;;;23.23;25.00
42511;BME280;28141;51.120;17.114;2023-02-28T03:02:07;103022.59;;;23.29;25.06
42511;BME280;28141;51.120;17.114;2023-02-28T03:08:47;103021.55;;;23.22;24.96
42511;BME280;28141;51.120;17.114;2023-02-28T03:12:40;103031.77;;;23.21;25.00
42511;BME280;28141;51.120;17.114;2023-02-28T03:23:42;103033.33;;;23.24;25.00
42511;BME280;28141;51.120;17.114;2023-02-28T03:26:54;103031.94;;;23.20;25.11
42511;BME280;28141;51.120;17.114;2023-02-28T03:30:16;103035.90;;;23.17;24.90
42511;BME280;28141;51.120;17.114;2023-02-28T03:34:12;103048.70;;;23.18;25.06
42511;BME280;28141;51.120;17.114;2023-02-28T03:37:29;103044.20;;;23.17;24.98
42511;BME280;28141;51.120;17.114;2023-02-28T03:40:49;103044.38;;;23.24;24.94
42511;BME280;28141;51.120;17.114;2023-02-28T03:48:02;103043.69;;;23.06;25.29
42511;BME280;28141;51.120;17.114;2023-02-28T03:51:22;103046.62;;;23.04;25.45
42511;BME280;28141;51.120;17.114;2023-02-28T03:55:10;103052.67;;;23.08;25.23
42511;BME280;28141;51.120;17.114;2023-02-28T04:01:50;103047.67;;;23.11;25.41
42511;BME280;28141;51.120;17.114;2023-02-28T04:05:33;103054.56;;;23.15;25.18
42511;BME280;28141;51.120;17.114;2023-02-28T04:08:52;103048.35;;;23.05;25.27
42511;BME280;28141;51.120;17.114;2023-02-28T04:12:08;103055.60;;;23.06;25.43
42511;BME280;28141;51.120;17.114;2023-02-28T04:15:22;103057.88;;;23.03;25.25
42511;BME280;28141;51.120;17.114;2023-02-28T04:19:09;103056.48;;;22.99;25.32
42511;BME280;28141;51.120;17.114;2023-02-28T04:22:23;103057.68;;;22.96;25.25
42511;BME280;28141;51.120;17.114;2023-02-28T04:25:40;103061.67;;;23.02;25.37
42511;BME280;28141;51.120;17.114;2023-02-28T04:28:54;103061.50;;;23.03;25.33
42511;BME280;28141;51.120;17.114;2023-02-28T04:32:41;103067.54;;;23.07;25.33
42511;BME280;28141;51.120;17.114;2023-02-28T04:36:01;103070.47;;;23.05;25.25
42511;BME280;28141;51.120;17.114;2023-02-28T04:39:17;103066.84;;;22.97;25.32
42511;BME280;28141;51.120;17.114;2023-02-28T04:42:31;103067.90;;;23.04;25.35
42511;BME280;28141;51.120;17.114;2023-02-28T04:46:16;103071.50;;;23.04;25.39
42511;BME280;28141;51.120;17.114;2023-02-28T04:49:31;103068.40;;;23.07;25.40
42511;BME280;28141;51.120;17.114;2023-02-28T04:52:45;103069.10;;;23.01;25.38
42511;BME280;28141;51.120;17.114;2023-02-28T04:56:00;103070.84;;;23.02;25.43
42511;BME280;28141;51.120;17.114;2023-02-28T04:59:14;103080.15;;;23.17;25.19
42511;BME280;28141;51.120;17.114;2023-02-28T05:02:28;103075.66;;;23.24;25.17
42511;BME280;28141;51.120;17.114;2023-02-28T05:05:42;103083.08;;;23.32;25.44
42511;BME280;28141;51.120;17.114;2023-02-28T05:08:56;103083.95;;;23.33;25.11
42511;BME280;28141;51.120;17.114;2023-02-28T05:12:36;103088.45;;;23.34;24.90
42511;BME280;28141;51.120;17.114;2023-02-28T05:15:50;103076.35;;;23.35;24.70
42511;BME280;28141;51.120;17.114;2023-02-28T05:19:04;103080.84;;;23.36;24.75
42511;BME280;28141;51.120;17.114;2023-02-28T05:22:18;103082.73;;;23.43;24.36
42511;BME280;28141;51.120;17.114;2023-02-28T05:25:32;103086.70;;;23.49;24.41
42511;BME280;28141;51.120;17.114;2023-02-28T05:29:13;103079.81;;;23.53;24.47
42511;BME280;28141;51.120;17.114;2023-02-28T05:32:27;103085.87;;;23.56;23.82
42511;BME280;28141;51.120;17.114;2023-02-28T05:35:42;103089.30;;;23.58;24.31
42511;BME280;28141;51.120;17.114;2023-02-28T05:38:59;103092.27;;;23.57;24.32
42511;BME280;28141;51.120;17.114;2023-02-28T05:44:41;103099.33;;;23.68;24.00
42511;BME280;28141;51.120;17.114;2023-02-28T05:47:55;103103.82;;;23.60;24.02
42511;BME280;28141;51.120;17.114;2023-02-28T05:51:09;103113.69;;;23.63;23.99
42511;BME280;28141;51.120;17.114;2023-02-28T05:54:23;103105.91;;;23.67;23.99
42511;BME280;28141;51.120;17.114;2023-02-28T05:57:37;103116.43;;;23.71;23.96
42511;BME280;28141;51.120;17.114;2023-02-28T06:04:48;103112.98;;;23.77;23.81
42511;BME280;28141;51.120;17.114;2023-02-28T06:08:02;103129.90;;;23.82;23.59
42511;BME280;28141;51.120;17.114;2023-02-28T06:11:15;103135.41;;;23.90;23.55
42511;BME280;28141;51.120;17.114;2023-02-28T06:14:59;103130.42;;;23.86;23.63
42511;BME280;28141;51.120;17.114;2023-02-28T06:18:12;103131.81;;;23.90;23.63
42511;BME280;28141;51.120;17.114;2023-02-28T06:21:27;103132.64;;;23.90;23.50
42511;BME280;28141;51.120;17.114;2023-02-28T06:24:41;103139.56;;;23.94;23.63
42511;BME280;28141;51.120;17.114;2023-02-28T06:28:22;103150.09;;;24.07;23.67
42511;BME280;28141;51.120;17.114;2023-02-28T06:31:36;103146.42;;;24.15;23.63
42511;BME280;28141;51.120;17.114;2023-02-28T06:34:51;103147.98;;;24.25;23.39
42511;BME280;28141;51.120;17.114;2023-02-28T06:38:06;103150.74;;;24.25;23.31
42511;BME280;28141;51.120;17.114;2023-02-28T06:41:44;103159.05;;;24.25;23.32
42511;BME280;28141;51.120;17.114;2023-02-28T06:45:00;103154.04;;;24.29;23.39
42511;BME280;28141;51.120;17.114;2023-02-28T06:48:22;103160.79;;;24.26;23.26
42511;BME280;28141;51.120;17.114;2023-02-28T06:52:02;103163.91;;;24.31;22.86
42511;BME280;28141;51.120;17.114;2023-02-28T06:55:16;103160.59;;;24.36;22.76
42511;BME280;28141;51.120;17.114;2023-02-28T06:58:31;103162.30;;;24.37;22.63
42511;BME280;28141;51.120;17.114;2023-02-28T07:01:46;103164.04;;;24.38;22.60
42511;BME280;28141;51.120;17.114;2023-02-28T07:05:26;103166.76;;;24.46;22.65
42511;BME280;28141;51.120;17.114;2023-02-28T07:08:40;103167.81;;;24.45;22.40
42511;BME280;28141;51.120;17.114;2023-02-28T07:11:54;103164.86;;;24.47;22.57
42511;BME280;28141;51.120;17.114;2023-02-28T07:15:09;103172.83;;;24.50;22.51
42511;BME280;28141;51.120;17.114;2023-02-28T07:18:48;103165.55;;;24.49;22.33
42511;BME280;28141;51.120;17.114;2023-02-28T07:22:02;103172.95;;;24.56;22.13
42511;BME280;28141;51.120;17.114;2023-02-28T07:25:16;103164.80;;;24.63;21.96
42511;BME280;28141;51.120;17.114;2023-02-28T07:28:30;103170.16;;;24.64;22.25
42511;BME280;28141;51.120;17.114;2023-02-28T07:32:08;103176.37;;;24.66;22.10
42511;BME280;28141;51.120;17.114;2023-02-28T07:35:22;103170.29;;;24.71;22.09
42511;BME280;28141;51.120;17.114;2023-02-28T07:38:37;103174.44;;;24.75;21.77
42511;BME280;28141;51.120;17.114;2023-02-28T07:41:51;103174.27;;;24.77;21.87
42511;BME280;28141;51.120;17.114;2023-02-28T07:45:30;103179.81;;;24.77;21.75
42511;BME280;28141;51.120;17.114;2023-02-28T07:48:47;103179.93;;;24.83;21.69
42511;BME280;28141;51.120;17.114;2023-02-28T07:52:06;103181.66;;;24.84;21.28
42511;BME280;28141;51.120;17.114;2023-02-28T07:55:46;103177.86;;;24.85;21.54
42511;BME280;28141;51.120;17.114;2023-02-28T07:59:00;103181.10;;;24.89;21.67
42511;BME280;28141;51.120;17.114;2023-02-28T08:02:16;103169.66;;;24.92;21.35
42511;BME280;28141;51.120;17.114;2023-02-28T08:05:30;103169.51;;;24.93;21.43
42511;BME280;28141;51.120;17.114;2023-02-28T08:09:09;103169.27;;;25.03;21.22
42511;BME280;28141;51.120;17.114;2023-02-28T08:12:24;103171.11;;;25.10;21.04
42511;BME280;28141;51.120;17.114;2023-02-28T08:15:38;103172.30;;;25.16;21.56
42511;BME280;28141;51.120;17.114;2023-02-28T08:18:52;103171.94;;;25.19;21.52
42511;BME280;28141;51.120;17.114;2023-02-28T08:22:31;103171.38;;;25.24;21.00
42511;BME280;28141;51.120;17.114;2023-02-28T08:25:52;103177.78;;;25.24;21.14
42511;BME280;28141;51.120;17.114;2023-02-28T08:29:03;103170.84;;;25.28;20.83
42511;BME280;28141;51.120;17.114;2023-02-28T08:32:17;103168.05;;;25.28;20.59
42511;BME280;28141;51.120;17.114;2023-02-28T08:35:56;103177.06;;;25.30;20.58
42511;BME280;28141;51.120;17.114;2023-02-28T08:39:12;103171.45;;;25.38;20.69
42511;BME280;28141;51.120;17.114;2023-02-28T08:42:26;103176.30;;;25.36;20.62
42511;BME280;28141;51.120;17.114;2023-02-28T08:45:40;103177.54;;;25.34;20.60
42511;BME280;28141;51.120;17.114;2023-02-28T08:49:19;103173.17;;;25.39;20.47
42511;BME280;28141;51.120;17.114;2023-02-28T08:52:33;103177.28;;;25.43;20.15
42511;BME280;28141;51.120;17.114;2023-02-28T08:59:37;103185.17;;;25.32;20.29
42511;BME280;28141;51.120;17.114;2023-02-28T09:02:51;103176.21;;;25.30;20.36
42511;BME280;28141;51.120;17.114;2023-02-28T09:06:05;103187.09;;;25.31;20.22
42511;BME280;28141;51.120;17.114;2023-02-28T09:09:20;103174.46;;;25.29;20.14
42511;BME280;28141;51.120;17.114;2023-02-28T09:12:58;103178.75;;;25.31;20.03
42511;BME280;28141;51.120;17.114;2023-02-28T09:16:14;103173.89;;;25.33;19.90
42511;BME280;28141;51.120;17.114;2023-02-28T09:19:29;103167.80;;;25.38;20.05
42511;BME280;28141;51.120;17.114;2023-02-28T09:22:43;103163.80;;;25.40;20.02
42511;BME280;28141;51.120;17.114;2023-02-28T09:26:24;103170.86;;;25.43;19.87
42511;BME280;28141;51.120;17.114;2023-02-28T09:29:38;103160.27;;;25.46;19.77
42511;BME280;28141;51.120;17.114;2023-02-28T09:32:52;103165.80;;;25.46;19.62
42511;BME280;28141;51.120;17.114;2023-02-28T09:36:07;103152.26;;;25.52;19.98
42511;BME280;28141;51.120;17.114;2023-02-28T09:39:45;103158.08;;;25.57;19.71
42511;BME280;28141;51.120;17.114;2023-02-28T09:43:00;103157.73;;;25.60;19.69
42511;BME280;28141;51.120;17.114;2023-02-28T09:46:27;103151.63;;;25.64;19.84
42511;BME280;28141;51.120;17.114;2023-02-28T09:53:36;103144.38;;;25.63;19.67
42511;BME280;28141;51.120;17.114;2023-02-28T10:00:42;103151.38;;;25.74;19.61
42511;BME280;28141;51.120;17.114;2023-02-28T10:04:03;103158.95;;;25.80;19.15
42511;BME280;28141;51.120;17.114;2023-02-28T10:11:12;103162.41;;;25.82;19.48
42511;BME280;28141;51.120;17.114;2023-02-28T10:14:30;103166.50;;;25.86;19.13
42511;BME280;28141;51.120;17.114;2023-02-28T10:17:49;103162.00;;;25.85;19.20
42511;BME280;28141;51.120;17.114;2023-02-28T10:21:36;103156.66;;;25.84;19.47
42511;BME280;28141;51.120;17.114;2023-02-28T10:24:54;103160.00;;;25.79;19.35
42511;BME280;28141;51.120;17.114;2023-02-28T10:28:14;103155.02;;;25.89;19.52
42511;BME280;28141;51.120;17.114;2023-02-28T10:31:53;103161.07;;;25.93;19.39
42511;BME280;28141;51.120;17.114;2023-02-28T10:35:16;103157.62;;;25.91;19.57
42511;BME280;28141;51.120;17.114;2023-02-28T10:38:37;103157.80;;;25.89;19.43
42511;BME280;28141;51.120;17.114;2023-02-28T10:42:24;103152.83;;;25.85;19.50
42511;BME280;28141;51.120;17.114;2023-02-28T10:45:51;103147.66;;;25.81;19.02
42511;BME280;28141;51.120;17.114;2023-02-28T10:49:05;103150.06;;;25.85;19.63
42511;BME280;28141;51.120;17.114;2023-02-28T10:52:44;103150.89;;;25.85;19.64
42511;BME280;28141;51.120;17.114;2023-02-28T10:59:30;103144.29;;;25.86;19.87
42511;BME280;28141;51.120;17.114;2023-02-28T11:06:34;103137.12;;;25.92;19.53
42511;BME280;28141;51.120;17.114;2023-02-28T11:09:52;103136.54;;;25.96;19.72
42511;BME280;28141;51.120;17.114;2023-02-28T11:13:34;103138.07;;;25.99;19.66
42511;BME280;28141;51.120;17.114;2023-02-28T11:16:50;103127.83;;;25.99;19.62
42511;BME280;28141;51.120;17.114;2023-02-28T11:20:07;103125.73;;;26.01;19.80
42511;BME280;28141;51.120;17.114;2023-02-28T11:23:52;103129.56;;;26.00;19.47
42511;BME280;28141;51.120;17.114;2023-02-28T11:30:39;103120.96;;;25.95;19.40
42511;BME280;28141;51.120;17.114;2023-02-28T11:34:25;103130.15;;;25.96;19.38
42511;BME280;28141;51.120;17.114;2023-02-28T11:37:40;103125.55;;;26.03;19.37
42511;BME280;28141;51.120;17.114;2023-02-28T11:41:05;103126.04;;;26.06;19.65
42511;BME280;28141;51.120;17.114;2023-02-28T11:51:52;103102.91;;;26.21;19.80
42511;BME280;28141;51.120;17.114;2023-02-28T11:55:42;103109.83;;;26.25;20.01
42511;BME280;28141;51.120;17.114;2023-02-28T12:10:21;103093.82;;;26.27;19.91
42511;BME280;28141;51.120;17.114;2023-02-28T12:17:30;103083.09;;;26.24;19.35
42511;BME280;28141;51.120;17.114;2023-02-28T12:20:59;103072.75;;;26.32;19.55
42511;BME280;28141;51.120;17.114;2023-02-28T12:28:13;103076.39;;;26.33;19.59
42511;BME280;28141;51.120;17.114;2023-02-28T12:31:35;103075.63;;;26.39;19.57
42511;BME280;28141;51.120;17.114;2023-02-28T12:35:02;103072.07;;;26.45;19.57
42511;BME280;28141;51.120;17.114;2023-02-28T12:39:08;103060.14;;;26.51;19.48
42511;BME280;28141;51.120;17.114;2023-02-28T12:42:17;103057.36;;;26.51;19.41
42511;BME280;28141;51.120;17.114;2023-02-28T12:49:34;103047.88;;;26.60;19.55
42511;BME280;28141;51.120;17.114;2023-02-28T13:00:13;103037.48;;;26.90;19.46
42511;BME280;28141;51.120;17.114;2023-02-28T13:07:30;103038.85;;;27.22;19.39
42511;BME280;28141;51.120;17.114;2023-02-28T13:10:47;103039.91;;;27.49;19.19
42511;BME280;28141;51.120;17.114;2023-02-28T13:14:37;103050.80;;;27.72;19.23
42511;BME280;28141;51.120;17.114;2023-02-28T13:17:54;103046.18;;;27.85;18.79
42511;BME280;28141;51.120;17.114;2023-02-28T13:21:21;103039.24;;;28.09;18.66
42511;BME280;28141;51.120;17.114;2023-02-28T13:24:56;103042.99;;;28.29;18.73
42511;BME280;28141;51.120;17.114;2023-02-28T13:28:13;103038.34;;;28.50;18.55
42511;BME280;28141;51.120;17.114;2023-02-28T13:31:28;103038.59;;;28.68;18.59
42511;BME280;28141;51.120;17.114;2023-02-28T13:38:41;103041.91;;;28.98;18.59
42511;BME280;28141;51.120;17.114;2023-02-28T13:41:56;103037.82;;;29.14;18.29
42511;BME280;28141;51.120;17.114;2023-02-28T13:52:30;103030.95;;;29.49;18.20
42511;BME280;28141;51.120;17.114;2023-02-28T14:03:17;103008.20;;;30.17;18.16
42511;BME280;28141;51.120;17.114;2023-02-28T14:06:31;102996.70;;;30.38;18.21
42511;BME280;28141;51.120;17.114;2023-02-28T14:10:37;103009.89;;;30.62;17.80
42511;BME280;28141;51.120;17.114;2023-02-28T14:13:45;103001.17;;;30.77;17.86
42511;BME280;28141;51.120;17.114;2023-02-28T14:17:05;102993.32;;;30.92;17.79
42511;BME280;28141;51.120;17.114;2023-02-28T14:20:53;102994.48;;;31.09;17.60
42511;BME280;28141;51.120;17.114;2023-02-28T14:27:50;102993.13;;;31.37;17.53
42511;BME280;28141;51.120;17.114;2023-02-28T14:31:37;102984.22;;;31.46;17.32
42511;BME280;28141;51.120;17.114;2023-02-28T14:38:23;102982.45;;;31.70;17.42
42511;BME280;28141;51.120;17.114;2023-02-28T14:45:30;102977.22;;;31.92;16.97
42511;BME280;28141;51.120;17.114;2023-02-28T14:48:48;102976.80;;;32.07;16.54
42511;BME280;28141;51.120;17.114;2023-02-28T14:52:31;102974.30;;;32.17;16.17
42511;BME280;28141;51.120;17.114;2023-02-28T14:55:47;102975.23;;;32.29;16.27
42511;BME280;28141;51.120;17.114;2023-02-28T14:59:03;102977.23;;;32.40;15.98
42511;BME280;28141;51.120;17.114;2023-02-28T15:02:21;102979.21;;;32.51;16.18
42511;BME280;28141;51.120;17.114;2023-02-28T15:06:12;102980.58;;;32.60;15.96
42511;BME280;28141;51.120;17.114;2023-02-28T15:09:25;102984.39;;;32.66;16.21
42511;BME280;28141;51.120;17.114;2023-02-28T15:12:40;102977.60;;;32.74;15.51
42511;BME280;28141;51.120;17.114;2023-02-28T15:16:30;102984.09;;;32.86;15.90
42511;BME280;28141;51.120;17.114;2023-02-28T15:19:48;102980.54;;;32.90;15.49
42511;BME280;28141;51.120;17.114;2023-02-28T15:23:05;102979.09;;;32.99;16.02
42511;BME280;28141;51.120;17.114;2023-02-28T15:26:50;102977.99;;;33.00;15.94
42511;BME280;28141;51.120;17.114;2023-02-28T15:30:11;102975.93;;;32.96;16.29
42511;BME280;28141;51.120;17.114;2023-02-28T15:33:31;102975.17;;;32.89;16.22
42511;BME280;28141;51.120;17.114;2023-02-28T15:44:16;102967.05;;;32.27;15.71
42511;BME280;28141;51.120;17.114;2023-02-28T15:47:57;102978.75;;;32.06;15.99
42511;BME280;28141;51.120;17.114;2023-02-28T15:51:20;102976.52;;;31.97;15.75
42511;BME280;28141;51.120;17.114;2023-02-28T15:54:35;102974.83;;;31.77;15.75
42511;BME280;28141;51.120;17.114;2023-02-28T15:57:55;102970.12;;;31.53;16.20
42511;BME280;28141;51.120;17.114;2023-02-28T16:01:38;102987.95;;;31.15;16.26
42511;BME280;28141;51.120;17.114;2023-02-28T16:05:00;102967.08;;;30.87;16.07
42511;BME280;28141;51.120;17.114;2023-02-28T16:08:15;102974.65;;;30.55;16.21
42511;BME280;28141;51.120;17.114;2023-02-28T16:11:29;102980.40;;;30.28;16.64
42511;BME280;28141;51.120;17.114;2023-02-28T16:15:18;102987.84;;;29.96;16.80
42511;BME280;28141;51.120;17.114;2023-02-28T16:18:33;102986.85;;;29.64;17.10
42511;BME280;28141;51.120;17.114;2023-02-28T16:21:47;102994.44;;;29.44;16.96
42511;BME280;28141;51.120;17.114;2023-02-28T16:25:01;102993.99;;;29.21;16.65
42511;BME280;28141;51.120;17.114;2023-02-28T16:28:47;103000.48;;;28.95;17.42
42511;BME280;28141;51.120;17.114;2023-02-28T16:32:04;102999.74;;;28.66;17.61
42511;BME280;28141;51.120;17.114;2023-02-28T16:35:19;103005.08;;;28.48;17.56
42511;BME280;28141;51.120;17.114;2023-02-28T16:38:33;103001.38;;;28.21;17.82
42511;BME280;28141;51.120;17.114;2023-02-28T16:42:23;103003.61;;;27.98;18.09
42511;BME280;28141;51.120;17.114;2023-02-28T16:45:38;102999.22;;;27.76;18.27
42511;BME280;28141;51.120;17.114;2023-02-28T16:48:52;102993.53;;;27.56;18.13
42511;BME280;28141;51.120;17.114;2023-02-28T16:52:06;103000.63;;;27.37;18.05
42511;BME280;28141;51.120;17.114;2023-02-28T16:55:46;103016.34;;;27.17;18.70
42511;BME280;28141;51.120;17.114;2023-02-28T16:59:02;103012.80;;;27.02;18.49
42511;BME280;28141;51.120;17.114;2023-02-28T17:02:18;103023.29;;;26.85;18.83
42511;BME280;28141;51.120;17.114;2023-02-28T17:05:38;103019.55;;;26.71;19.00
42511;BME280;28141;51.120;17.114;2023-02-28T17:09:21;103026.60;;;26.52;19.18
42511;BME280;28141;51.120;17.114;2023-02-28T17:12:35;103026.91;;;26.43;19.17
42511;BME280;28141;51.120;17.114;2023-02-28T17:15:49;103027.13;;;26.27;19.27
42511;BME280;28141;51.120;17.114;2023-02-28T17:19:05;103022.46;;;26.12;19.54
42511;BME280;28141;51.120;17.114;2023-02-28T17:22:43;103031.66;;;25.98;19.62
42511;BME280;28141;51.120;17.114;2023-02-28T17:25:58;103026.91;;;25.92;19.58
42511;BME280;28141;51.120;17.114;2023-02-28T17:29:17;103028.06;;;25.83;19.76
42511;BME280;28141;51.120;17.114;2023-02-28T17:32:31;103033.42;;;25.70;19.96
42511;BME280;28141;51.120;17.114;2023-02-28T17:36:17;103029.36;;;25.58;19.98
42511;BME280;28141;51.120;17.114;2023-02-28T17:39:35;103028.42;;;25.51;20.29
42511;BME280;28141;51.120;17.114;2023-02-28T17:42:49;103024.84;;;25.42;20.12
42511;BME280;28141;51.120;17.114;2023-02-28T17:46:30;103029.43;;;25.35;20.30
42511;BME280;28141;51.120;17.114;2023-02-28T17:49:44;103026.74;;;25.27;19.98
42511;BME280;28141;51.120;17.114;2023-02-28T17:52:58;103031.12;;;25.21;20.15
42511;BME280;28141;51.120;17.114;2023-02-28T17:56:21;103029.47;;;25.12;20.29
42511;BME280;28141;51.120;17.114;2023-02-28T18:00:01;103034.42;;;25.02;20.71
42511;BME280;28141;51.120;17.114;2023-02-28T18:03:20;103028.59;;;24.97;20.43
42511;BME280;28141;51.120;17.114;2023-02-28T18:06:43;103038.13;;;24.94;20.74
42511;BME280;28141;51.120;17.114;2023-02-28T18:10:27;103032.31;;;24.81;20.96
42511;BME280;28141;51.120;17.114;2023-02-28T18:13:41;103045.02;;;24.76;21.22
42511;BME280;28141;51.120;17.114;2023-02-28T18:16:55;103049.87;;;24.73;21.12
42511;BME280;28141;51.120;17.114;2023-02-28T18:20:11;103045.74;;;24.69;20.97
42511;BME280;28141;51.120;17.114;2023-02-28T18:23:50;103045.45;;;24.64;21.22
42511;BME280;28141;51.120;17.114;2023-02-28T18:27:05;103043.21;;;24.60;21.09
42511;BME280;28141;51.120;17.114;2023-02-28T18:30:20;103039.80;;;24.50;21.25
42511;BME280;28141;51.120;17.114;2023-02-28T18:33:34;103038.27;;;24.47;21.34
42511;BME280;28141;51.120;17.114;2023-02-28T18:37:14;103036.35;;;24.48;21.45
42511;BME280;28141;51.120;17.114;2023-02-28T18:40:31;103037.09;;;24.42;21.74
42511;BME280;28141;51.120;17.114;2023-02-28T18:43:46;103036.09;;;24.34;21.33
42511;BME280;28141;51.120;17.114;2023-02-28T18:47:00;103038.39;;;24.31;21.53
42511;BME280;28141;51.120;17.114;2023-02-28T18:50:38;103052.08;;;24.24;21.69
42511;BME280;28141;51.120;17.114;2023-02-28T18:53:52;103046.02;;;24.21;21.91
42511;BME280;28141;51.120;17.114;2023-02-28T18:57:06;103035.29;;;24.18;21.67
42511;BME280;28141;51.120;17.114;2023-02-28T19:00:21;103040.89;;;24.10;22.17
42511;BME280;28141;51.120;17.114;2023-02-28T19:04:04;103047.94;;;24.12;21.90
42511;BME280;28141;51.120;17.114;2023-02-28T19:07:18;103043.31;;;24.05;21.78
42511;BME280;28141;51.120;17.114;2023-02-28T19:10:32;103046.44;;;24.01;22.16
42511;BME280;28141;51.120;17.114;2023-02-28T19:13:47;103044.40;;;23.95;22.04
42511;BME280;28141;51.120;17.114;2023-02-28T19:17:26;103039.04;;;23.94;22.09
42511;BME280;28141;51.120;17.114;2023-02-28T19:20:39;103045.61;;;23.93;22.02
42511;BME280;28141;51.120;17.114;2023-02-28T19:23:54;103044.05;;;23.90;22.19
42511;BME280;28141;51.120;17.114;2023-02-28T19:27:08;103044.79;;;23.84;22.30
42511;BME280;28141;51.120;17.114;2023-02-28T19:30:50;103045.13;;;23.81;22.23
42511;BME280;28141;51.120;17.114;2023-02-28T19:34:05;103044.44;;;23.87;22.28
42511;BME280;28141;51.120;17.114;2023-02-28T19:37:20;103050.66;;;23.81;22.22
42511;BME280;28141;51.120;17.114;2023-02-28T19:40:34;103050.71;;;23.73;22.34
42511;BME280;28141;51.120;17.114;2023-02-28T19:43:48;103049.52;;;23.68;22.36
42511;BME280;28141;51.120;17.114;2023-02-28T19:47:04;103059.35;;;23.70;22.36
42511;BME280;28141;51.120;17.114;2023-02-28T19:50:43;103056.41;;;23.72;22.42
42511;BME280;28141;51.120;17.114;2023-02-28T19:53:57;103054.84;;;23.69;22.31
42511;BME280;28141;51.120;17.114;2023-02-28T19:57:11;103051.60;;;23.65;22.42